createdAt,value
2019-01-25T00:00:31.230Z,61.97
2019-01-25T00:02:58.485Z,58.00
2019-01-25T00:05:26.011Z,62.13
2019-01-25T00:07:53.425Z,58.93
2019-01-25T00:10:20.679Z,60.20
2019-01-25T00:12:48.006Z,60.90
2019-01-25T00:15:15.358Z,57.33
2019-01-25T00:17:42.686Z,59.00
2019-01-25T00:20:13.152Z,57.23
2019-01-25T00:22:40.658Z,53.40
2019-01-25T00:25:08.452Z,57.00
2019-01-25T00:27:36.068Z,63.10
2019-01-25T00:30:05.217Z,52.33
2019-01-25T00:32:32.499Z,56.67
2019-01-25T00:35:00.034Z,58.63
2019-01-25T00:37:27.553Z,59.23
2019-01-25T00:39:55.056Z,54.93
2019-01-25T00:42:22.331Z,60.17
2019-01-25T00:44:49.582Z,56.87
2019-01-25T00:47:16.850Z,64.83
2019-01-25T00:49:44.265Z,57.20
2019-01-25T00:52:11.613Z,58.73
2019-01-25T00:54:39.123Z,59.10
2019-01-25T00:57:06.470Z,62.20
2019-01-25T00:59:33.722Z,61.63
2019-01-25T01:02:01.003Z,57.87
2019-01-25T01:04:28.261Z,56.90
2019-01-25T01:06:55.549Z,60.00
2019-01-25T01:09:22.801Z,59.27
2019-01-25T01:11:50.051Z,67.53
2019-01-25T01:14:17.597Z,58.13
2019-01-25T01:16:44.876Z,57.40
2019-01-25T01:19:12.136Z,66.30
2019-01-25T01:21:39.414Z,63.17
2019-01-25T01:24:06.921Z,55.13
2019-01-25T01:26:34.448Z,58.13
2019-01-25T01:29:01.725Z,59.80
2019-01-25T01:31:28.999Z,59.97
2019-01-25T01:33:56.533Z,57.70
2019-01-25T01:36:23.789Z,57.30
2019-01-25T01:38:51.322Z,61.30
2019-01-25T01:41:18.826Z,64.40
2019-01-25T01:43:46.330Z,63.63
2019-01-25T01:46:13.625Z,58.50
2019-01-25T01:48:40.862Z,54.90
2019-01-25T01:51:08.146Z,58.83
2019-01-25T01:53:35.429Z,61.83
2019-01-25T01:56:02.956Z,62.43
2019-01-25T01:58:30.210Z,65.77
2019-01-25T02:00:57.567Z,61.60
2019-01-25T02:03:24.817Z,59.63
2019-01-25T02:05:52.173Z,65.73
2019-01-25T02:08:19.428Z,57.67
2019-01-25T02:10:46.714Z,62.83
2019-01-25T02:13:14.230Z,62.03
2019-01-25T02:15:41.769Z,58.63
2019-01-25T02:18:09.097Z,62.90
2019-01-25T02:20:36.373Z,63.00
2019-01-25T02:23:03.663Z,65.20
2019-01-25T02:25:30.915Z,59.83
2019-01-25T02:27:58.261Z,59.97
2019-01-25T02:30:26.117Z,67.73
2019-01-25T02:32:53.791Z,69.73
2019-01-25T02:35:21.184Z,59.83
2019-01-25T02:37:48.587Z,62.50
2019-01-25T02:40:20.289Z,63.07
2019-01-25T02:42:47.639Z,60.40
2019-01-25T02:45:14.915Z,58.13
2019-01-25T02:47:42.238Z,60.73
2019-01-25T02:50:11.058Z,57.33
2019-01-25T02:52:38.312Z,59.93
2019-01-25T02:55:06.266Z,66.13
2019-01-25T02:57:33.509Z,57.07
2019-01-25T03:00:01.143Z,68.30
2019-01-25T03:02:28.399Z,65.47
2019-01-25T03:04:55.675Z,63.47
2019-01-25T03:07:22.950Z,63.63
2019-01-25T03:09:50.289Z,62.17
2019-01-25T03:12:17.538Z,67.20
2019-01-25T03:14:45.048Z,58.03
2019-01-25T03:17:12.334Z,58.37
2019-01-25T03:19:39.577Z,58.80
2019-01-25T03:22:07.269Z,63.50
2019-01-25T03:24:34.683Z,67.67
2019-01-25T03:27:02.010Z,67.13
2019-01-25T03:29:29.289Z,59.43
2019-01-25T03:31:56.578Z,66.63
2019-01-25T03:34:23.931Z,67.43
2019-01-25T03:36:51.438Z,66.00
2019-01-25T03:39:18.723Z,59.70
2019-01-25T03:41:45.998Z,62.93
2019-01-25T03:44:13.543Z,68.03
2019-01-25T03:46:41.066Z,58.07
2019-01-25T03:49:08.320Z,59.80
2019-01-25T03:51:35.847Z,66.93
2019-01-25T03:54:03.153Z,61.47
2019-01-25T03:56:30.718Z,61.13
2019-01-25T03:58:57.997Z,58.23
2019-01-25T04:01:25.331Z,53.27
2019-01-25T04:03:52.610Z,60.37
2019-01-25T04:06:19.954Z,61.00
2019-01-25T04:08:47.206Z,54.93
2019-01-25T04:11:14.485Z,63.80
2019-01-25T04:13:42.033Z,63.83
2019-01-25T04:16:09.553Z,56.53
2019-01-25T04:18:36.826Z,61.60
2019-01-25T04:21:04.326Z,68.00
2019-01-25T04:23:31.612Z,66.60
2019-01-25T04:25:59.061Z,61.63
2019-01-25T04:28:26.390Z,60.60
2019-01-25T04:30:53.638Z,64.93
2019-01-25T04:33:20.931Z,61.70
2019-01-25T04:35:48.439Z,63.13
2019-01-25T04:38:15.696Z,59.67
2019-01-25T04:40:42.971Z,64.63
2019-01-25T04:43:10.503Z,68.20
2019-01-25T04:45:37.782Z,57.90
2019-01-25T04:48:05.070Z,55.63
2019-01-25T04:50:32.322Z,62.03
2019-01-25T04:52:59.599Z,59.50
2019-01-25T04:55:27.817Z,61.87
2019-01-25T04:57:56.626Z,55.10
2019-01-25T05:00:24.001Z,59.77
2019-01-25T05:02:52.377Z,60.17
2019-01-25T05:05:20.058Z,60.20
2019-01-25T05:07:47.375Z,63.80
2019-01-25T05:10:14.748Z,65.43
2019-01-25T05:12:44.332Z,61.17
2019-01-25T05:15:11.796Z,52.83
2019-01-25T05:17:39.046Z,59.40
2019-01-25T05:20:07.188Z,59.20
2019-01-25T05:22:34.466Z,59.37
2019-01-25T05:25:01.715Z,60.20
2019-01-25T05:27:29.008Z,61.30
2019-01-25T05:29:56.257Z,56.23
2019-01-25T05:32:23.785Z,54.27
2019-01-25T05:34:51.053Z,54.80
2019-01-25T05:37:18.309Z,60.93
2019-01-25T05:39:45.834Z,60.50
2019-01-25T05:42:13.083Z,61.17
2019-01-25T05:44:40.365Z,59.13
2019-01-25T05:47:08.287Z,58.10
2019-01-25T05:49:35.646Z,58.53
2019-01-25T05:52:03.218Z,62.07
2019-01-25T05:54:30.771Z,58.77
2019-01-25T05:56:58.097Z,58.50
2019-01-25T05:59:25.604Z,54.17
2019-01-25T06:01:52.877Z,59.50
2019-01-25T06:04:20.150Z,60.40
2019-01-25T06:06:47.747Z,62.10
2019-01-25T06:09:18.024Z,58.83
2019-01-25T06:11:45.581Z,57.40
2019-01-25T06:14:14.134Z,56.07
2019-01-25T06:16:41.558Z,56.47
2019-01-25T06:19:08.844Z,67.63
2019-01-25T06:21:36.114Z,60.07
2019-01-25T06:24:03.461Z,57.47
2019-01-25T06:26:30.957Z,67.80
2019-01-25T06:28:58.231Z,66.17
2019-01-25T06:31:25.492Z,69.37
2019-01-25T06:33:52.743Z,62.70
2019-01-25T06:36:20.350Z,70.40
2019-01-25T06:38:47.588Z,63.90
2019-01-25T06:41:14.862Z,62.70
2019-01-25T06:43:42.150Z,68.40
2019-01-25T06:46:09.504Z,74.10
2019-01-25T06:48:36.775Z,79.67
2019-01-25T06:51:04.474Z,82.70
2019-01-25T06:53:31.722Z,78.30
2019-01-25T06:55:59.270Z,71.07
2019-01-25T06:58:31.449Z,67.37
2019-01-25T07:01:16.694Z,79.40
2019-01-25T07:03:43.984Z,75.83
2019-01-25T07:06:11.249Z,70.83
2019-01-25T07:08:38.542Z,74.42
2019-01-25T07:11:05.942Z,87.22
2019-01-25T07:13:33.189Z,72.60
2019-01-25T07:16:00.478Z,74.63
2019-01-25T07:18:27.725Z,66.83
2019-01-25T07:20:55.277Z,75.87
2019-01-25T07:23:22.785Z,67.47
2019-01-25T07:25:50.338Z,69.00
2019-01-25T07:28:17.664Z,71.43
2019-01-25T07:30:44.971Z,67.23
2019-01-25T07:33:12.282Z,74.20
2019-01-25T07:35:39.608Z,79.90
2019-01-25T07:38:06.909Z,84.20
2019-01-25T07:40:34.460Z,91.43
2019-01-25T07:43:01.710Z,73.93
2019-01-25T07:45:29.075Z,77.30
2019-01-25T07:47:56.414Z,81.20
2019-01-25T07:50:25.051Z,85.10
2019-01-25T07:52:52.532Z,89.20
2019-01-25T07:55:19.814Z,96.23
2019-01-25T07:57:47.134Z,91.23
2019-01-25T08:00:15.329Z,95.63
2019-01-25T08:02:42.614Z,84.83
2019-01-25T08:05:10.716Z,99.90
2019-01-25T08:07:38.289Z,85.47
2019-01-25T08:10:07.080Z,97.80
2019-01-25T08:12:34.625Z,85.43
2019-01-25T08:15:02.323Z,104.23
2019-01-25T08:17:29.763Z,117.90
2019-01-25T08:19:57.044Z,104.87
2019-01-25T08:22:24.324Z,90.23
2019-01-25T08:24:51.572Z,91.93
2019-01-25T08:27:19.115Z,99.70
2019-01-25T08:29:46.648Z,90.13
2019-01-25T08:32:13.915Z,106.83
2019-01-25T08:34:41.443Z,107.43
2019-01-25T08:37:08.727Z,99.63
2019-01-25T08:39:36.070Z,95.30
2019-01-25T08:42:03.462Z,118.80
2019-01-25T08:44:30.759Z,121.20
2019-01-25T08:46:58.118Z,98.30
2019-01-25T08:49:25.443Z,90.80
2019-01-25T08:51:52.787Z,96.77
2019-01-25T08:54:20.473Z,103.40
2019-01-25T08:56:47.995Z,103.70
2019-01-25T08:59:15.338Z,94.23
2019-01-25T09:01:42.908Z,92.43
2019-01-25T09:04:10.183Z,112.63
2019-01-25T09:06:37.521Z,110.40
2019-01-25T09:09:06.314Z,89.33
2019-01-25T09:11:33.601Z,106.80
2019-01-25T09:14:00.857Z,105.60
2019-01-25T09:16:28.113Z,103.47
2019-01-25T09:18:55.393Z,100.53
2019-01-25T09:21:22.725Z,101.23
2019-01-25T09:23:50.084Z,112.67
2019-01-25T09:26:17.363Z,103.10
2019-01-25T09:28:44.649Z,105.80
2019-01-25T09:31:11.973Z,102.03
2019-01-25T09:33:39.230Z,103.87
2019-01-25T09:36:06.594Z,100.80
2019-01-25T09:38:34.276Z,101.47
2019-01-25T09:41:01.643Z,112.53
2019-01-25T09:43:29.177Z,90.27
2019-01-25T09:45:56.505Z,106.80
2019-01-25T09:48:23.785Z,95.33
2019-01-25T09:50:52.829Z,110.97
2019-01-25T09:53:20.299Z,109.63
2019-01-25T09:55:47.670Z,100.90
2019-01-25T09:58:16.167Z,99.07
2019-01-25T10:00:45.090Z,101.43
2019-01-25T10:03:12.627Z,111.80
2019-01-25T10:05:39.885Z,111.07
2019-01-25T10:08:07.165Z,101.27
2019-01-25T10:10:34.421Z,119.77
2019-01-25T10:13:01.702Z,107.13
2019-01-25T10:15:29.424Z,105.10
2019-01-25T10:17:56.706Z,108.60
2019-01-25T10:20:23.993Z,108.10
2019-01-25T10:22:51.424Z,105.07
2019-01-25T10:25:18.722Z,116.03
2019-01-25T10:27:47.177Z,100.87
2019-01-25T10:30:19.049Z,100.83
2019-01-25T10:32:46.334Z,100.17
2019-01-25T10:35:13.945Z,109.07
2019-01-25T10:37:41.241Z,101.27
2019-01-25T10:40:10.354Z,96.73
2019-01-25T10:42:44.282Z,98.37
2019-01-25T10:45:08.162Z,94.07
2019-01-25T10:47:35.434Z,93.50
2019-01-25T10:50:02.692Z,85.80
2019-01-25T10:52:29.958Z,90.67
2019-01-25T10:54:57.242Z,89.80
2019-01-25T10:57:24.523Z,92.83
2019-01-25T10:59:51.805Z,92.83
2019-01-25T11:02:19.099Z,89.03
2019-01-25T11:04:46.354Z,90.00
2019-01-25T11:07:13.601Z,95.67
2019-01-25T11:09:40.874Z,96.70
2019-01-25T11:12:08.120Z,92.23
2019-01-25T11:14:35.673Z,82.83
2019-01-25T11:17:02.954Z,84.47
2019-01-25T11:19:30.209Z,78.63
2019-01-25T11:21:57.483Z,73.83
2019-01-25T11:24:24.733Z,73.33
2019-01-25T11:26:52.282Z,70.20
2019-01-25T11:29:19.781Z,68.27
2019-01-25T11:31:47.069Z,64.90
2019-01-25T11:34:14.326Z,62.07
2019-01-25T11:36:41.579Z,60.80
2019-01-25T11:39:09.209Z,67.17
2019-01-25T11:41:36.464Z,59.10
2019-01-25T11:44:03.890Z,62.93
2019-01-25T11:46:31.447Z,65.53
2019-01-25T11:48:58.784Z,57.00
2019-01-25T11:51:26.065Z,63.70
2019-01-25T11:53:53.318Z,57.47
2019-01-25T11:56:20.738Z,63.87
2019-01-25T11:58:48.020Z,60.07
2019-01-25T12:01:15.332Z,55.40
2019-01-25T12:03:42.598Z,63.67
2019-01-25T12:06:10.147Z,56.63
2019-01-25T12:08:37.665Z,58.47
2019-01-25T12:11:04.973Z,55.97
2019-01-25T12:13:32.502Z,54.03
2019-01-25T12:15:59.777Z,62.47
2019-01-25T12:18:27.043Z,56.93
2019-01-25T12:20:54.404Z,53.57
2019-01-25T12:23:21.666Z,59.60
2019-01-25T12:25:48.919Z,59.43
2019-01-25T12:28:16.198Z,51.63
2019-01-25T12:30:43.718Z,55.03
2019-01-25T12:33:10.992Z,52.80
2019-01-25T12:35:39.217Z,64.60
2019-01-25T12:38:06.499Z,55.10
2019-01-25T12:40:34.026Z,51.30
2019-01-25T12:43:01.278Z,59.93
2019-01-25T12:45:29.131Z,53.17
2019-01-25T12:47:56.645Z,48.73
2019-01-25T12:50:25.279Z,49.60
2019-01-25T12:52:52.813Z,51.93
2019-01-25T12:55:20.252Z,55.30
2019-01-25T12:57:47.803Z,54.20
2019-01-25T13:00:16.386Z,50.57
2019-01-25T13:02:43.734Z,49.57
2019-01-25T13:05:12.837Z,47.93
2019-01-25T13:07:40.118Z,45.80
2019-01-25T13:10:09.140Z,46.77
2019-01-25T13:12:36.520Z,42.70
2019-01-25T13:15:05.368Z,45.13
2019-01-25T13:17:32.701Z,43.20
2019-01-25T13:20:00.243Z,45.87
2019-01-25T13:22:27.582Z,38.63
2019-01-25T13:24:55.142Z,43.97
2019-01-25T13:27:22.446Z,41.70
2019-01-25T13:29:49.722Z,39.40
2019-01-25T13:32:17.075Z,37.93
2019-01-25T13:34:44.360Z,40.13
2019-01-25T13:37:11.685Z,36.30
2019-01-25T13:39:39.058Z,46.23
2019-01-25T13:42:06.575Z,37.60
2019-01-25T13:44:34.079Z,38.00
2019-01-25T13:47:01.354Z,36.10
2019-01-25T13:49:28.685Z,37.73
2019-01-25T13:51:56.086Z,32.53
2019-01-25T13:54:28.676Z,35.80
2019-01-25T13:56:52.903Z,35.97
2019-01-25T13:59:20.164Z,32.30
2019-01-25T14:01:47.522Z,33.17
2019-01-25T14:04:14.844Z,36.90
2019-01-25T14:06:42.134Z,34.03
2019-01-25T14:09:09.730Z,36.10
2019-01-25T14:11:37.198Z,33.90
2019-01-25T14:14:05.149Z,30.27
2019-01-25T14:16:34.389Z,32.60
2019-01-25T14:19:01.906Z,30.43
2019-01-25T14:21:29.295Z,28.90
2019-01-25T14:23:56.937Z,24.60
2019-01-25T14:26:24.505Z,28.37
2019-01-25T14:28:52.007Z,22.40
2019-01-25T14:31:19.293Z,19.30
2019-01-25T14:33:46.804Z,19.43
2019-01-25T14:36:14.095Z,20.60
2019-01-25T14:38:42.407Z,20.80
2019-01-25T14:41:09.778Z,19.20
2019-01-25T14:43:37.058Z,19.17
2019-01-25T14:46:04.578Z,16.10
2019-01-25T14:48:31.830Z,16.87
2019-01-25T14:50:59.366Z,16.57
2019-01-25T14:53:26.637Z,13.10
2019-01-25T14:55:53.919Z,20.43
2019-01-25T14:58:21.195Z,13.77
2019-01-25T15:00:48.438Z,20.17
2019-01-25T15:03:15.722Z,18.63
2019-01-25T15:05:42.973Z,17.53
2019-01-25T15:08:10.255Z,16.30
2019-01-25T15:10:37.524Z,14.97
2019-01-25T15:13:05.134Z,14.23
2019-01-25T15:15:32.483Z,14.40
2019-01-25T15:17:59.856Z,15.30
2019-01-25T15:20:27.243Z,15.43
2019-01-25T15:22:54.528Z,18.07
2019-01-25T15:25:21.846Z,16.30
2019-01-25T15:27:49.129Z,16.60
2019-01-25T15:30:20.614Z,13.77
2019-01-25T15:32:47.933Z,13.40
2019-01-25T15:35:16.082Z,13.83
2019-01-25T15:37:43.406Z,10.93
2019-01-25T15:40:12.190Z,14.77
2019-01-25T15:42:39.437Z,13.07
2019-01-25T15:45:10.654Z,12.77
2019-01-25T15:47:38.155Z,11.03
2019-01-25T15:50:07.240Z,12.80
2019-01-25T15:52:34.481Z,12.93
2019-01-25T15:55:01.759Z,12.13
2019-01-25T15:57:29.038Z,11.10
2019-01-25T15:59:56.314Z,13.43
2019-01-25T16:02:23.739Z,11.47
2019-01-25T16:04:51.066Z,10.47
2019-01-25T16:07:18.571Z,12.63
2019-01-25T16:09:45.842Z,12.33
2019-01-25T16:12:13.246Z,11.00
2019-01-25T16:14:40.625Z,10.37
2019-01-25T16:17:07.904Z,14.20
2019-01-25T16:19:35.435Z,11.40
2019-01-25T16:22:02.935Z,11.40
2019-01-25T16:24:30.461Z,11.77
2019-01-25T16:26:57.815Z,11.33
2019-01-25T16:29:25.091Z,11.47
2019-01-25T16:31:52.338Z,12.23
2019-01-25T16:34:19.838Z,13.00
2019-01-25T16:36:47.193Z,15.20
2019-01-25T16:39:14.518Z,12.50
2019-01-25T16:41:41.769Z,13.23
2019-01-25T16:44:09.041Z,12.30
2019-01-25T16:46:36.321Z,11.90
2019-01-25T16:49:03.766Z,11.83
2019-01-25T16:51:31.281Z,12.23
2019-01-25T16:53:58.558Z,13.30
2019-01-25T16:56:25.829Z,13.40
2019-01-25T16:58:53.105Z,13.78
2019-01-25T17:01:20.382Z,14.77
2019-01-25T17:03:47.638Z,9.60
2019-01-25T17:06:15.169Z,15.80
2019-01-25T17:08:42.713Z,14.13
2019-01-25T17:11:09.987Z,14.93
2019-01-25T17:13:37.270Z,14.17
2019-01-25T17:16:04.590Z,15.73
2019-01-25T17:18:31.867Z,12.33
2019-01-25T17:20:59.111Z,14.90
2019-01-25T17:23:26.398Z,16.97
2019-01-25T17:25:53.642Z,18.20
2019-01-25T17:28:20.918Z,18.77
2019-01-25T17:30:48.251Z,20.17
2019-01-25T17:33:15.526Z,19.73
2019-01-25T17:35:42.813Z,25.30
2019-01-25T17:38:10.057Z,24.20
2019-01-25T17:40:46.125Z,21.57
2019-01-25T17:43:07.982Z,20.47
2019-01-25T17:45:35.466Z,22.57
2019-01-25T17:48:02.726Z,23.20
2019-01-25T17:50:29.997Z,24.07
2019-01-25T17:52:57.324Z,28.10
2019-01-25T17:55:24.915Z,24.80
2019-01-25T17:57:52.311Z,23.47
2019-01-25T18:00:31.833Z,29.70
2019-01-25T18:02:59.353Z,23.20
2019-01-25T18:05:26.613Z,29.77
2019-01-25T18:07:54.134Z,32.37
2019-01-25T18:10:22.467Z,32.53
2019-01-25T18:12:49.984Z,26.50
2019-01-25T18:15:17.709Z,33.23
2019-01-25T18:17:44.974Z,32.00
2019-01-25T18:20:16.630Z,31.03
2019-01-25T18:22:43.984Z,34.37
2019-01-25T18:25:21.553Z,30.67
2019-01-25T18:27:50.713Z,31.17
2019-01-25T18:30:19.505Z,34.40
2019-01-25T18:32:46.822Z,38.20
2019-01-25T18:35:14.093Z,36.30
2019-01-25T18:37:41.337Z,36.60
2019-01-25T18:40:10.377Z,37.93
2019-01-25T18:42:37.911Z,38.60
2019-01-25T18:45:06.814Z,34.40
2019-01-25T18:47:34.090Z,37.00
2019-01-25T18:50:01.634Z,36.47
2019-01-25T18:52:28.881Z,39.60
2019-01-25T18:54:56.952Z,37.27
2019-01-25T18:57:24.218Z,42.07
2019-01-25T18:59:51.510Z,37.97
2019-01-25T19:02:18.758Z,35.53
2019-01-25T19:04:46.258Z,39.70
2019-01-25T19:07:13.544Z,40.00
2019-01-25T19:09:40.801Z,44.03
2019-01-25T19:12:08.289Z,41.83
2019-01-25T19:14:35.663Z,41.50
2019-01-25T19:17:02.913Z,42.93
2019-01-25T19:19:30.161Z,44.40
2019-01-25T19:21:57.701Z,41.30
2019-01-25T19:24:25.046Z,40.33
2019-01-25T19:26:52.424Z,38.87
2019-01-25T19:29:19.678Z,45.20
2019-01-25T19:31:46.926Z,37.13
2019-01-25T19:34:14.203Z,41.53
2019-01-25T19:36:41.568Z,43.60
2019-01-25T19:39:09.081Z,41.93
2019-01-25T19:41:36.424Z,34.40
2019-01-25T19:44:04.224Z,39.30
2019-01-25T19:46:31.770Z,41.63
2019-01-25T19:48:59.035Z,45.07
2019-01-25T19:51:26.568Z,37.37
2019-01-25T19:53:53.850Z,43.50
2019-01-25T19:56:21.199Z,45.57
2019-01-25T19:58:48.558Z,41.60
2019-01-25T20:01:15.821Z,34.70
2019-01-25T20:03:43.070Z,36.00
2019-01-25T20:06:10.690Z,38.03
2019-01-25T20:08:37.974Z,33.87
2019-01-25T20:11:05.523Z,34.67
2019-01-25T20:13:33.038Z,31.63
2019-01-25T20:16:00.674Z,32.63
2019-01-25T20:18:27.993Z,34.87
2019-01-25T20:21:01.313Z,33.00
2019-01-25T20:23:31.871Z,40.20
2019-01-25T20:25:59.245Z,37.57
2019-01-25T20:28:26.800Z,34.53
2019-01-25T20:30:54.318Z,28.73
2019-01-25T20:33:21.867Z,33.73
2019-01-25T20:35:49.414Z,24.40
2019-01-25T20:38:16.695Z,27.53
2019-01-25T20:40:43.977Z,27.63
2019-01-25T20:43:21.634Z,26.60
2019-01-25T20:45:49.759Z,24.90
2019-01-25T20:48:32.423Z,23.37
2019-01-25T20:51:00.138Z,24.97
2019-01-25T20:53:27.406Z,29.40
2019-01-25T20:55:54.726Z,26.47
2019-01-25T20:58:22.005Z,34.43
2019-01-25T21:00:49.574Z,30.70
2019-01-25T21:03:16.877Z,28.70
2019-01-25T21:05:44.221Z,31.33
2019-01-25T21:08:11.506Z,30.33
2019-01-25T21:10:38.827Z,29.43
2019-01-25T21:13:06.367Z,33.00
2019-01-25T21:15:35.348Z,30.77
2019-01-25T21:18:02.750Z,32.83
2019-01-25T21:20:34.045Z,33.07
2019-01-25T21:23:01.570Z,37.80
2019-01-25T21:25:28.845Z,33.30
2019-01-25T21:27:56.175Z,31.90
2019-01-25T21:30:24.886Z,35.90
2019-01-25T21:32:52.401Z,33.60
2019-01-25T21:35:19.650Z,41.00
2019-01-25T21:37:47.003Z,34.30
2019-01-25T21:40:15.799Z,34.57
2019-01-25T21:42:43.089Z,38.83
2019-01-25T21:45:11.808Z,33.57
2019-01-25T21:47:39.151Z,36.20
2019-01-25T21:50:10.658Z,33.77
2019-01-25T21:52:37.906Z,32.27
2019-01-25T21:55:06.635Z,32.67
2019-01-25T21:57:33.982Z,37.60
2019-01-25T22:00:01.239Z,34.30
2019-01-25T22:02:28.601Z,33.60
2019-01-25T22:04:55.845Z,34.10
2019-01-25T22:07:23.134Z,29.37
2019-01-25T22:09:50.390Z,30.30
2019-01-25T22:12:17.997Z,29.30
2019-01-25T22:14:45.240Z,28.20
2019-01-25T22:17:12.556Z,26.60
2019-01-25T22:19:39.854Z,26.40
2019-01-25T22:22:07.201Z,27.47
2019-01-25T22:24:34.457Z,25.80
2019-01-25T22:27:01.734Z,23.47
2019-01-25T22:29:29.273Z,23.53
2019-01-25T22:31:56.773Z,25.97
2019-01-25T22:34:24.055Z,25.30
2019-01-25T22:36:51.301Z,22.47
2019-01-25T22:39:18.602Z,23.17
2019-01-25T22:41:46.103Z,27.27
2019-01-25T22:44:13.353Z,27.57
2019-01-25T22:46:40.794Z,27.93
2019-01-25T22:49:08.052Z,25.93
2019-01-25T22:51:35.320Z,27.20
2019-01-25T22:54:02.592Z,28.57
2019-01-25T22:56:30.134Z,25.10
2019-01-25T22:58:57.685Z,25.67
2019-01-25T23:01:25.777Z,25.70
2019-01-25T23:04:00.572Z,25.87
2019-01-25T23:06:32.280Z,25.97
2019-01-25T23:09:01.594Z,23.20
2019-01-25T23:11:28.846Z,27.30
2019-01-25T23:13:56.354Z,29.60
2019-01-25T23:16:23.625Z,26.13
2019-01-25T23:18:50.879Z,29.23
2019-01-25T23:21:18.154Z,25.00
2019-01-25T23:23:45.440Z,27.03
2019-01-25T23:26:12.753Z,25.50
2019-01-25T23:28:40.000Z,24.17
2019-01-25T23:31:07.283Z,23.67
2019-01-25T23:33:34.817Z,24.57
2019-01-25T23:36:02.153Z,25.33
2019-01-25T23:38:29.498Z,23.77
2019-01-25T23:40:56.746Z,21.57
2019-01-25T23:43:24.349Z,21.80
2019-01-25T23:45:51.666Z,22.23
2019-01-25T23:48:18.977Z,25.47
2019-01-25T23:50:46.264Z,21.50
2019-01-25T23:53:13.551Z,21.57
2019-01-25T23:55:41.058Z,23.33
2019-01-25T23:58:08.329Z,18.30
